Terminal Aerodrome Forecast
Issued by NWS Omaha/Valley, NE

Home | Current Version | Previous Version | Text Only | Print | Product List | Glossary On
Versions: 1 2 3 4 5 6 7 8 9 10 11 12 13 14 15 16 17 18 19 20 21 22 23 24 25 26 27 28 29 30 31 32 33 34 35 36 37 38 39 40 41 42 43 44 45
000
FTUS43 KOAX 070520
TAFOFK
TAF
KOFK 070520Z 0706/0806 02007KT 5SM HZ SKC
      TEMPO 0706/0710 2SM BR HZ
     FM071500 02008KT 5SM HZ SKC
     FM080000 07006KT 6SM HZ SKC=

USA.gov is the U.S. government's official web portal to all federal, state and local government web resources and services.